CheckWX is a tool to help pilots better visualize weather data.  It is not intended as a substitute for an official pre-flight weather briefing.

14:53:23 UTC

EVLA METAR
Liepāja International Airport
Liepāja, Latvia
Current

33 mins ago

EVLA 161420Z AUTO 28006KT 230V330 9999 FEW024/// BKN057/// OVC069/// 16/11 Q1007
Observed
Jul-16 @ 14:20 UTC
Wind
  • 280° at 6 KTS
Visibility
10,000+ meters
Flight Rules
VFR
Cloud Levels
  • Few at 2,400' AGL
  • Broken at 5,700' AGL
  • Overcast at 6,900' AGL
Temperature
16°C / 61°F
Dewpoint
11°C / 52°F
Humidity
72%
Altimeter
29.73" Hg
Pressure
1006.92 hPa
Previous

1 hour ago

EVLA 161350Z AUTO 29007KT 250V330 9999 FEW025/// BKN058/// BKN074/// 17/11 Q1006
Observed
Jul-16 @ 13:50 UTC
Wind
  • 290° at 7 KTS
Visibility
10,000+ meters
Flight Rules
VFR
Cloud Levels
  • Few at 2,500' AGL
  • Broken at 5,800' AGL
  • Broken at 7,400' AGL
Temperature
17°C / 63°F
Dewpoint
11°C / 52°F
Humidity
68%
Altimeter
29.7" Hg
Pressure
1005.92 hPa
Previous

2 hours ago

EVLA 161320Z AUTO 30006KT 260V330 9999 FEW027/// SCT061/// BKN069/// 17/10 Q1006
Observed
Jul-16 @ 13:20 UTC
Wind
  • 300° at 6 KTS
Visibility
10,000+ meters
Flight Rules
VFR
Cloud Levels
  • Few at 2,700' AGL
  • Scattered at 6,100' AGL
  • Broken at 6,900' AGL
Temperature
17°C / 63°F
Dewpoint
10°C / 50°F
Humidity
64%
Altimeter
29.7" Hg
Pressure
1005.92 hPa